KPIH/PIH METAR and TAF weather

Enter ICAO airport designator
Station Type Date Time Source
KPIH METAR 2021/09/24 05:53 UTC NOAA

KPIH 240553Z 20008KT 10SM CLR 12/03 A3025 RMK AO2 SLP215 T01220028 10222 20117 50007


Station Type Date Time Source
KPIH Decoded METAR 2021/09/24 05:53 UTC NOAA

POCATELLO REGIONAL AIRPORT, ID, United States (KPIH) 42-55N 112-36W 1359M
Sep 24, 2021 - 01:53 AM EDT / 2021.09.24 0553 UTC
Wind: from the SSW (200 degrees) at 9 MPH (8 KT):0
Visibility: 10 mile(s):0
Sky conditions: clear
Temperature: 54.0 F (12.2 C)
Dew Point: 37.0 F (2.8 C)
Relative Humidity: 52%
Pressure (altimeter): 30.25 in. Hg (1024 hPa)
Pressure tendency: 0.02 inches (0.7 hPa) higher than three hours ago
ob: KPIH 240553Z 20008KT 10SM CLR 12/03 A3025 RMK AO2 SLP215 T01220028 10222 20117 50007
cycle: 6

Station Type Date Time Source
KPIH TAF 2021/09/24 06:22 UTC NOAA

TAF KPIH 240520Z 2406/2506 21007KT P6SM SKC
FM241800 28010KT P6SM SKC
FM250300 13006KT P6SM SKC

Example: see airport list